Angelholm, Sweden

8:15 PM CEST on August 30, 2014 (GMT +0200)
ANGELHOLM (SWE- | Change Station
CLOSE
Current Station
Airport
Location: ANGELHOLM (SWE-,
Elevation: 66 ft
Nearby Weather Stations

Elev 66 ft 56.30 °N, 12.85 °E | Updated 25 minutes ago

Rain
Rain
57 °F
Feels Like 57 °F
N
12
Wind Variable Wind from ESE

Today
High -- | Low -- °F
--% Chance of Precip.
Yesterday
High -- | Low -- °F
Precip. -- in
6:07 AM 8:09 PM
Waxing Crescent, 23% visible
Pressure 29.92 in
Visibility 6.2 miles
Clouds Mostly Cloudy 800 ft
Dew Point 55 °F
Humidity 94%
Rainfall 0.00 in
Snow Depth Not available.
UV 0 out of 12
Pollen Not available.
Air Quality Not available.
Flu Activity Not available.
METAR ESTA 301750Z AUTO 11010KT 9999 RA BKN008/// 14/13 Q1013

More Conditions Fewer Conditions

Pressure 29.92 in
Visibility 6.2 miles
Clouds Mostly Cloudy 800 ft
Dew Point 55 °F
Humidity 94%
Rainfall 0.00 in
Snow Depth Not available.
UV 0 out of 12
Pollen Not available.
Air Quality Not available.
Flu Activity Not available.
METAR ESTA 301750Z AUTO 11010KT 9999 RA BKN008/// 14/13 Q1013

More Conditions Fewer Conditions

10-Day Weather Forecast

Almanac

Astronomy

Aug. 30, 2014 Rise Set
Actual Time 6:07 AM CEST 8:09 PM CEST
Civil Twilight 5:27 AM CEST 8:49 PM CEST
Nautical Twilight 4:36 AM CEST 9:39 PM CEST
Astronomical Twilight 3:35 AM CEST 10:39 PM CEST
Moon 11:35 AM CEST 9:32 PM CEST
Length of Visible Light 15h 21m
Length of Day
14h 01m
Tomorrow will be 4m 35s shorter.
Waxing Crescent, 23% of the Moon is Illuminated
Today
Waxing Crescent
Sep 2
First Quarter
Sep 8
Full
Sep 15
Last Quarter
Sep 24
New

Today's Extremes

Country Highs Country Lows

Community

WunderPhotos

Upload Photos

1,748,583 photos uploaded!

WunderBlogs® & News

Nearby

Snow Depth

Not available.

Earthquake Activity

City Distance Mag. Time & Date
No recent earthquake activity has been reported nearby.
Minimum magnitude displayed is 2.5.

Coastal Water Temperatures

Place Temperature
No Stations Reporting

Nearby Weather Stations